createdAt,value
2018-04-11T00:00:53.459Z,10.86
2018-04-11T00:03:22.503Z,10.95
2018-04-11T00:05:51.580Z,10.86
2018-04-11T00:08:20.658Z,10.89
2018-04-11T00:13:25.381Z,10.92
2018-04-11T00:18:30.130Z,11.08
2018-04-11T00:21:00.147Z,11.07
2018-04-11T00:23:29.214Z,10.96
2018-04-11T00:25:58.376Z,10.84
2018-04-11T00:28:38.527Z,10.88
2018-04-11T00:33:45.172Z,10.94
2018-04-11T00:36:14.255Z,11.07
2018-04-11T00:38:43.326Z,11.12
2018-04-11T00:41:12.754Z,11.00
2018-04-11T00:43:41.807Z,10.93
2018-04-11T00:46:10.864Z,10.89
2018-04-11T00:48:39.952Z,10.88
2018-04-11T00:51:09.142Z,10.89
2018-04-11T00:53:38.193Z,10.86
2018-04-11T00:58:42.941Z,10.90
2018-04-11T01:01:11.991Z,11.02
2018-04-11T01:06:17.796Z,11.05
2018-04-11T01:08:46.841Z,11.02
2018-04-11T01:13:51.679Z,11.07
2018-04-11T01:16:20.774Z,10.93
2018-04-11T01:18:49.970Z,10.81
2018-04-11T01:21:19.030Z,10.75
2018-04-11T01:23:48.092Z,10.69
2018-04-11T01:26:19.098Z,10.49
2018-04-11T01:28:48.155Z,10.46
2018-04-11T01:31:17.213Z,10.48
2018-04-11T01:33:46.256Z,10.42
2018-04-11T01:36:15.325Z,10.32
2018-04-11T01:38:44.371Z,10.34
2018-04-11T01:41:14.396Z,10.36
2018-04-11T01:43:43.450Z,10.36
2018-04-11T01:46:12.519Z,10.33
2018-04-11T01:48:41.596Z,10.37
2018-04-11T01:51:10.633Z,10.42
2018-04-11T01:53:39.784Z,10.36
2018-04-11T01:56:08.816Z,10.30
2018-04-11T01:58:37.943Z,10.27
2018-04-11T02:01:07.016Z,10.42
2018-04-11T02:03:36.085Z,10.31
2018-04-11T02:06:05.137Z,10.20
2018-04-11T02:08:34.183Z,10.13
2018-04-11T02:11:03.295Z,10.10
2018-04-11T02:13:32.359Z,10.01
2018-04-11T02:16:05.280Z,9.86
2018-04-11T02:18:34.316Z,9.78
2018-04-11T02:21:04.280Z,9.66
2018-04-11T02:23:33.330Z,9.59
2018-04-11T02:26:02.934Z,9.54
2018-04-11T02:28:31.980Z,9.56
2018-04-11T02:31:01.038Z,9.54
2018-04-11T02:33:30.098Z,9.53
2018-04-11T02:36:00.335Z,9.36
2018-04-11T02:38:29.419Z,9.30
2018-04-11T02:40:58.475Z,9.29
2018-04-11T02:43:27.523Z,9.44
2018-04-11T02:45:57.573Z,9.45
2018-04-11T02:51:03.636Z,9.43
2018-04-11T02:53:32.699Z,9.40
2018-04-11T02:56:01.812Z,9.31
2018-04-11T02:58:30.860Z,9.31
2018-04-11T03:01:00.835Z,9.37
2018-04-11T03:03:29.908Z,9.48
2018-04-11T03:05:58.998Z,9.53
2018-04-11T03:08:28.143Z,9.65
2018-04-11T03:10:59.194Z,9.62
2018-04-11T03:13:29.194Z,9.45
2018-04-11T03:15:58.351Z,9.29
2018-04-11T03:21:03.082Z,9.22
2018-04-11T03:23:32.171Z,9.24
2018-04-11T03:26:01.214Z,9.13
2018-04-11T03:31:06.085Z,9.17
2018-04-11T03:33:35.114Z,9.01
2018-04-11T03:36:05.113Z,9.07
2018-04-11T03:38:34.328Z,9.07
2018-04-11T03:41:03.379Z,8.90
2018-04-11T03:43:32.416Z,8.78
2018-04-11T03:46:01.509Z,8.84
2018-04-11T03:48:30.592Z,8.74
2018-04-11T03:51:00.702Z,8.70
2018-04-11T03:56:08.615Z,8.73
2018-04-11T03:58:37.668Z,8.67
2018-04-11T04:01:07.710Z,8.61
2018-04-11T04:03:36.754Z,8.65
2018-04-11T04:08:41.550Z,8.79
2018-04-11T04:11:11.608Z,8.72
2018-04-11T04:13:58.879Z,8.56
2018-04-11T04:16:49.214Z,8.42
2018-04-11T04:19:36.145Z,8.33
2018-04-11T04:22:05.199Z,8.25
2018-04-11T04:24:34.257Z,8.26
2018-04-11T04:27:03.319Z,8.19
2018-04-11T04:29:32.468Z,8.18
2018-04-11T04:32:01.571Z,8.15
2018-04-11T04:34:30.614Z,8.17
2018-04-11T04:36:59.672Z,8.09
2018-04-11T04:42:04.953Z,8.19
2018-04-11T04:44:34.162Z,8.14
2018-04-11T04:47:03.250Z,8.16
2018-04-11T04:49:32.301Z,8.15
2018-04-11T04:52:01.479Z,8.16
2018-04-11T04:54:30.539Z,8.16
2018-04-11T04:56:59.610Z,8.19
2018-04-11T04:59:28.716Z,8.19
2018-04-11T05:01:58.977Z,8.19
2018-04-11T05:07:03.947Z,8.44
2018-04-11T05:09:33.006Z,8.43
2018-04-11T05:12:03.013Z,8.48
2018-04-11T05:14:32.382Z,8.47
2018-04-11T05:17:01.415Z,8.43
2018-04-11T05:19:31.430Z,8.35
2018-04-11T05:22:01.305Z,8.33
2018-04-11T05:24:30.370Z,8.38
2018-04-11T05:26:59.639Z,8.42
2018-04-11T05:29:29.060Z,8.49
2018-04-11T05:31:58.083Z,8.47
2018-04-11T05:34:28.078Z,8.49
2018-04-11T05:36:57.135Z,8.47
2018-04-11T05:39:26.184Z,8.45
2018-04-11T05:41:55.850Z,8.51
2018-04-11T05:44:24.903Z,8.58
2018-04-11T05:46:53.974Z,8.69
2018-04-11T05:49:23.472Z,8.78
2018-04-11T05:54:28.263Z,8.85
2018-04-11T05:56:57.351Z,8.91
2018-04-11T05:59:26.585Z,8.92
2018-04-11T06:01:55.635Z,8.99
2018-04-11T06:04:25.052Z,9.03
2018-04-11T06:06:54.106Z,9.08
2018-04-11T06:09:23.166Z,9.17
2018-04-11T06:11:52.714Z,9.31
2018-04-11T06:14:21.770Z,9.35
2018-04-11T06:16:51.040Z,9.51
2018-04-11T06:19:20.090Z,9.62
2018-04-11T06:21:49.136Z,9.66
2018-04-11T06:24:18.876Z,9.75
2018-04-11T06:26:47.935Z,9.86
2018-04-11T06:29:17.561Z,9.93
2018-04-11T06:31:46.612Z,10.05
2018-04-11T06:34:15.867Z,10.20
2018-04-11T06:36:45.063Z,10.34
2018-04-11T06:39:14.097Z,10.37
2018-04-11T06:41:43.570Z,10.38
2018-04-11T06:44:12.638Z,10.48
2018-04-11T06:46:42.235Z,10.51
2018-04-11T06:51:47.126Z,10.62
2018-04-11T06:54:16.844Z,10.82
2018-04-11T06:56:45.885Z,10.89
2018-04-11T07:01:50.662Z,11.17
2018-04-11T07:04:20.038Z,11.18
2018-04-11T07:06:49.762Z,11.24
2018-04-11T07:09:18.991Z,11.28
2018-04-11T07:11:48.058Z,11.34
2018-04-11T07:14:17.136Z,11.50
2018-04-11T07:16:46.932Z,11.67
2018-04-11T07:19:15.970Z,11.76
2018-04-11T07:21:45.273Z,11.81
2018-04-11T07:26:50.588Z,12.10
2018-04-11T07:29:19.638Z,12.35
2018-04-11T07:31:48.967Z,12.49
2018-04-11T07:34:18.005Z,12.53
2018-04-11T07:36:47.281Z,12.57
2018-04-11T07:41:52.785Z,12.94
2018-04-11T07:44:21.856Z,13.08
2018-04-11T07:46:50.904Z,13.10
2018-04-11T07:49:20.005Z,13.17
2018-04-11T07:51:49.040Z,13.06
2018-04-11T07:56:53.922Z,13.46
2018-04-11T07:59:23.448Z,13.64
2018-04-11T08:04:28.219Z,13.91
2018-04-11T08:06:57.254Z,13.97
2018-04-11T08:09:26.408Z,13.96
2018-04-11T08:11:55.430Z,14.08
2018-04-11T08:14:25.923Z,14.13
2018-04-11T08:16:54.979Z,14.00
2018-04-11T08:24:35.540Z,14.64
2018-04-11T08:29:40.430Z,15.06
2018-04-11T08:32:13.369Z,15.03
2018-04-11T08:37:17.939Z,15.40
2018-04-11T08:39:47.634Z,15.61
2018-04-11T08:42:16.681Z,15.21
2018-04-11T08:44:46.194Z,15.28
2018-04-11T08:47:15.267Z,15.64
2018-04-11T08:49:44.308Z,15.70
2018-04-11T08:52:13.393Z,15.99
2018-04-11T08:54:43.019Z,16.62
2018-04-11T08:57:12.062Z,16.42
2018-04-11T08:59:41.134Z,16.86
2018-04-11T09:02:11.933Z,18.21
2018-04-11T09:04:41.008Z,20.79
2018-04-11T09:07:10.614Z,22.22
2018-04-11T09:09:39.661Z,21.26
2018-04-11T09:12:09.157Z,22.30
2018-04-11T09:14:38.206Z,23.80
2018-04-11T09:17:07.358Z,25.32
2018-04-11T09:19:36.472Z,26.60
2018-04-11T09:22:05.530Z,25.63
2018-04-11T09:24:35.163Z,23.75
2018-04-11T09:29:46.380Z,27.62
2018-04-11T09:34:58.099Z,30.47
2018-04-11T09:37:31.382Z,31.49
2018-04-11T09:40:04.998Z,32.01
2018-04-11T09:42:34.020Z,32.62
2018-04-11T09:45:07.718Z,30.80
2018-04-11T09:47:37.166Z,32.49
2018-04-11T09:50:09.899Z,31.25
2018-04-11T09:52:42.447Z,29.79
2018-04-11T09:57:56.167Z,29.92
2018-04-11T10:00:30.696Z,26.73
2018-04-11T10:03:08.696Z,28.23
2018-04-11T10:05:38.375Z,30.70
2018-04-11T10:08:07.426Z,32.67
2018-04-11T10:10:37.019Z,34.21
2018-04-11T10:15:42.267Z,33.28
2018-04-11T10:19:18.795Z,31.71
2018-04-11T10:21:47.866Z,31.32
2018-04-11T10:24:18.207Z,31.45
2018-04-11T10:26:47.289Z,31.71
2018-04-11T10:29:16.982Z,26.54
2018-04-11T10:36:58.007Z,32.55
2018-04-11T10:42:05.016Z,35.19
2018-04-11T10:44:34.051Z,34.88
2018-04-11T10:47:04.062Z,35.78
2018-04-11T10:49:33.443Z,35.45
2018-04-11T10:52:02.479Z,35.41
2018-04-11T10:57:07.338Z,32.75
2018-04-11T10:59:38.177Z,34.94
2018-04-11T11:02:10.447Z,32.27
2018-04-11T11:07:15.719Z,32.35
2018-04-11T11:09:45.295Z,33.93
2018-04-11T11:12:14.506Z,35.18
2018-04-11T11:17:19.372Z,34.74
2018-04-11T11:22:24.343Z,25.59
2018-04-11T11:27:29.187Z,26.35
2018-04-11T11:29:58.289Z,29.84
2018-04-11T11:32:27.337Z,28.29
2018-04-11T11:34:57.295Z,32.76
2018-04-11T11:37:26.357Z,32.52
2018-04-11T11:39:55.419Z,30.43
2018-04-11T11:42:24.477Z,29.12
2018-04-11T11:44:54.037Z,25.82
2018-04-11T11:47:23.100Z,23.54
2018-04-11T11:49:52.619Z,27.49
2018-04-11T11:52:22.972Z,31.69
2018-04-11T11:54:53.027Z,32.68
2018-04-11T11:57:22.139Z,35.19
2018-04-11T11:59:52.852Z,36.61
2018-04-11T12:02:21.921Z,35.70
2018-04-11T12:04:51.273Z,38.18
2018-04-11T12:07:24.607Z,38.52
2018-04-11T12:09:57.995Z,38.67
2018-04-11T12:12:29.439Z,37.60
2018-04-11T12:15:02.562Z,36.88
2018-04-11T12:20:12.331Z,38.06
2018-04-11T12:22:45.894Z,37.28
2018-04-11T12:25:14.926Z,32.97
2018-04-11T12:27:43.999Z,32.03
2018-04-11T12:30:13.681Z,35.32
2018-04-11T12:32:42.774Z,37.10
2018-04-11T12:35:12.241Z,34.62
2018-04-11T12:37:41.303Z,35.43
2018-04-11T12:40:10.742Z,37.42
2018-04-11T12:42:39.816Z,33.50
2018-04-11T12:45:08.926Z,36.15
2018-04-11T12:47:38.437Z,31.66
2018-04-11T12:50:07.512Z,35.54
2018-04-11T12:52:37.119Z,37.52
2018-04-11T12:55:06.312Z,39.10
2018-04-11T13:00:11.223Z,39.56
2018-04-11T13:02:40.270Z,33.63
2018-04-11T13:05:09.668Z,29.67
2018-04-11T13:10:14.623Z,37.92
2018-04-11T13:12:44.720Z,39.41
2018-04-11T13:17:49.639Z,39.39
2018-04-11T13:20:19.312Z,40.27
2018-04-11T13:22:48.366Z,38.22
2018-04-11T13:25:17.416Z,38.20
2018-04-11T13:27:46.464Z,38.53
2018-04-11T13:30:15.514Z,36.03
2018-04-11T13:32:45.058Z,36.44
2018-04-11T13:35:14.083Z,33.12
2018-04-11T13:37:43.794Z,34.57
2018-04-11T13:40:12.855Z,35.73
2018-04-11T13:42:41.955Z,36.46
2018-04-11T13:45:10.958Z,36.31
2018-04-11T13:47:40.649Z,35.71
2018-04-11T13:50:10.234Z,32.85
2018-04-11T13:55:20.704Z,32.21
2018-04-11T13:57:54.425Z,32.29
2018-04-11T14:00:27.319Z,31.01
2018-04-11T14:02:59.293Z,30.79
2018-04-11T14:05:32.124Z,30.08
2018-04-11T14:08:04.920Z,27.76
2018-04-11T14:10:37.578Z,28.74
2018-04-11T14:13:10.103Z,27.73
2018-04-11T14:18:19.554Z,25.08
2018-04-11T14:20:52.725Z,24.99
2018-04-11T14:23:26.496Z,24.33
2018-04-11T14:25:55.798Z,24.77
2018-04-11T14:28:24.851Z,25.63
2018-04-11T14:33:30.523Z,29.28
2018-04-11T14:35:59.582Z,30.96
2018-04-11T14:41:04.550Z,35.27
2018-04-11T14:43:34.099Z,31.82
2018-04-11T14:46:03.174Z,31.77
2018-04-11T14:48:32.215Z,30.04
2018-04-11T14:51:01.271Z,27.48
2018-04-11T14:56:06.646Z,27.48
2018-04-11T14:58:36.198Z,26.06
2018-04-11T15:01:05.228Z,24.96
2018-04-11T15:03:34.303Z,24.25
2018-04-11T15:08:39.492Z,27.57
2018-04-11T15:11:08.543Z,27.30
2018-04-11T15:13:38.104Z,27.69
2018-04-11T15:16:07.194Z,26.62
2018-04-11T15:18:36.241Z,27.25
2018-04-11T15:21:05.974Z,26.97
2018-04-11T15:23:34.998Z,24.18
2018-04-11T15:26:04.339Z,24.01
2018-04-11T15:28:33.384Z,24.66
2018-04-11T15:31:02.557Z,24.89
2018-04-11T15:33:32.468Z,25.43
2018-04-11T15:38:37.662Z,25.83
2018-04-11T15:41:06.688Z,27.09
2018-04-11T15:43:36.215Z,27.97
2018-04-11T15:48:42.695Z,29.03
2018-04-11T15:51:11.729Z,28.91
2018-04-11T15:53:40.785Z,28.55
2018-04-11T15:56:09.885Z,27.92
2018-04-11T15:58:39.479Z,27.99
2018-04-11T16:01:08.553Z,28.09
2018-04-11T16:03:37.953Z,27.59
2018-04-11T16:08:42.840Z,27.52
2018-04-11T16:11:12.988Z,25.63
2018-04-11T16:13:45.607Z,25.01
2018-04-11T16:16:16.131Z,24.63
2018-04-11T16:18:46.683Z,22.64
2018-04-11T16:21:16.281Z,23.15
2018-04-11T16:23:45.341Z,23.31
2018-04-11T16:26:14.502Z,22.79
2018-04-11T16:28:44.092Z,22.46
2018-04-11T16:31:13.217Z,21.69
2018-04-11T16:33:42.815Z,21.20
2018-04-11T16:36:11.868Z,21.12
2018-04-11T16:38:41.273Z,20.82
2018-04-11T16:41:10.791Z,20.73
2018-04-11T16:43:39.858Z,20.54
2018-04-11T16:46:09.354Z,20.62
2018-04-11T16:48:38.404Z,20.18
2018-04-11T16:51:07.832Z,19.90
2018-04-11T16:53:37.259Z,19.64
2018-04-11T16:56:06.288Z,19.26
2018-04-11T16:58:35.359Z,18.83
2018-04-11T17:01:04.386Z,18.84
2018-04-11T17:03:33.451Z,18.80
2018-04-11T17:06:02.842Z,18.57
2018-04-11T17:08:35.172Z,18.50
2018-04-11T17:11:04.226Z,18.55
2018-04-11T17:13:33.382Z,18.53
2018-04-11T17:16:02.438Z,18.52
2018-04-11T17:18:31.850Z,18.67
2018-04-11T17:21:18.801Z,18.52
2018-04-11T17:24:08.166Z,18.29
2018-04-11T17:26:54.988Z,18.02
2018-04-11T17:29:42.819Z,17.89
2018-04-11T17:34:48.197Z,17.79
2018-04-11T17:37:17.250Z,17.67
2018-04-11T17:39:46.313Z,17.58
2018-04-11T17:42:15.371Z,17.62
2018-04-11T17:44:44.734Z,17.51
2018-04-11T17:47:13.816Z,17.41
2018-04-11T17:49:42.868Z,17.25
2018-04-11T17:52:12.285Z,17.25
2018-04-11T17:54:41.557Z,17.15
2018-04-11T17:59:46.376Z,17.09
2018-04-11T18:02:17.719Z,16.94
2018-04-11T18:04:46.754Z,17.00
2018-04-11T18:07:15.813Z,16.93
2018-04-11T18:09:44.901Z,16.96
2018-04-11T18:12:15.181Z,17.01
2018-04-11T18:14:44.226Z,16.99
2018-04-11T18:19:50.251Z,16.90
2018-04-11T18:24:55.201Z,16.88
2018-04-11T18:27:24.498Z,16.88
2018-04-11T18:32:29.382Z,16.70
2018-04-11T18:35:00.471Z,16.66
2018-04-11T18:37:29.522Z,16.52
2018-04-11T18:39:58.599Z,16.47
2018-04-11T18:42:27.664Z,16.56
2018-04-11T18:44:56.941Z,16.52
2018-04-11T18:47:26.013Z,16.49
2018-04-11T18:49:55.099Z,16.46
2018-04-11T18:52:24.139Z,16.38
2018-04-11T18:54:54.171Z,16.33
2018-04-11T18:59:59.029Z,16.27
2018-04-11T19:07:39.586Z,16.35
2018-04-11T19:10:08.727Z,16.23
2018-04-11T19:12:37.789Z,16.14
2018-04-11T19:15:07.035Z,16.12
2018-04-11T19:17:36.137Z,16.18
2018-04-11T19:20:05.249Z,16.17
2018-04-11T19:25:10.491Z,16.21
2018-04-11T19:27:39.525Z,16.05
2018-04-11T19:30:21.084Z,16.07
2018-04-11T19:32:51.016Z,16.09
2018-04-11T19:35:20.114Z,16.02
2018-04-11T19:37:49.214Z,15.99
2018-04-11T19:40:18.271Z,15.92
2018-04-11T19:42:47.329Z,15.93
2018-04-11T19:45:16.388Z,15.90
2018-04-11T19:47:45.537Z,15.88
2018-04-11T19:50:14.676Z,15.84
2018-04-11T19:52:44.625Z,15.84
2018-04-11T19:55:13.779Z,15.88
2018-04-11T19:57:42.874Z,15.79
2018-04-11T20:00:12.019Z,15.82
2018-04-11T20:02:48.497Z,15.87
2018-04-11T20:05:29.549Z,15.67
2018-04-11T20:07:59.609Z,15.70
2018-04-11T20:10:28.731Z,15.62
2018-04-11T20:12:57.809Z,15.61
2018-04-11T20:18:02.722Z,15.58
2018-04-11T20:20:32.018Z,15.68
2018-04-11T20:23:01.377Z,15.52
2018-04-11T20:25:30.515Z,15.49
2018-04-11T20:27:59.932Z,15.41
2018-04-11T20:30:29.051Z,15.34
2018-04-11T20:35:34.019Z,15.36
2018-04-11T20:38:05.501Z,15.45
2018-04-11T20:40:34.736Z,15.42
2018-04-11T20:43:03.809Z,15.56
2018-04-11T20:45:34.440Z,15.50
2018-04-11T20:48:03.635Z,15.46
2018-04-11T20:50:32.726Z,15.30
2018-04-11T20:53:02.718Z,15.32
2018-04-11T20:55:32.006Z,15.24
2018-04-11T20:58:03.132Z,15.24
2018-04-11T21:00:32.202Z,15.17
2018-04-11T21:05:37.232Z,15.21
2018-04-11T21:08:10.804Z,15.23
2018-04-11T21:10:40.002Z,15.10
2018-04-11T21:13:09.099Z,15.15
2018-04-11T21:15:38.166Z,15.09
2018-04-11T21:18:07.914Z,15.04
2018-04-11T21:20:36.970Z,15.04
2018-04-11T21:25:41.827Z,15.15
2018-04-11T21:28:11.875Z,15.03
2018-04-11T21:30:41.022Z,14.93
2018-04-11T21:33:10.186Z,14.93
2018-04-11T21:35:39.256Z,14.85
2018-04-11T21:38:08.423Z,14.91
2018-04-11T21:40:37.562Z,14.94
2018-04-11T21:43:07.632Z,14.83
2018-04-11T21:45:36.680Z,14.93
2018-04-11T21:48:05.750Z,14.86
2018-04-11T21:50:34.986Z,14.99
2018-04-11T21:53:05.104Z,14.94
2018-04-11T21:55:34.198Z,15.00
2018-04-11T22:00:39.022Z,14.90
2018-04-11T22:03:11.379Z,14.75
2018-04-11T22:05:40.471Z,14.65
2018-04-11T22:08:09.544Z,14.60
2018-04-11T22:10:38.621Z,14.54
2018-04-11T22:13:07.806Z,14.60
2018-04-11T22:15:37.003Z,14.62
2018-04-11T22:20:41.851Z,14.50
2018-04-11T22:25:46.752Z,14.60
2018-04-11T22:28:15.942Z,14.39
2018-04-11T22:30:45.058Z,14.49
2018-04-11T22:33:14.114Z,14.40
2018-04-11T22:35:43.240Z,14.30
2018-04-11T22:38:12.683Z,14.30
2018-04-11T22:40:41.726Z,14.39
2018-04-11T22:43:11.677Z,14.42
2018-04-11T22:45:40.767Z,14.40
2018-04-11T22:50:45.585Z,14.52
2018-04-11T22:53:14.705Z,14.52
2018-04-11T22:55:43.698Z,14.47
2018-04-11T22:58:13.682Z,14.40
2018-04-11T23:00:42.727Z,14.39
2018-04-11T23:03:11.930Z,14.43
2018-04-11T23:05:41.030Z,14.30
2018-04-11T23:10:45.860Z,14.27
2018-04-11T23:13:14.923Z,14.39
2018-04-11T23:15:44.177Z,14.22
2018-04-11T23:18:13.317Z,14.29
2018-04-11T23:20:42.351Z,14.22
2018-04-11T23:23:11.396Z,14.28
2018-04-11T23:25:40.553Z,14.27
2018-04-11T23:28:09.642Z,14.30
2018-04-11T23:30:38.670Z,14.29
2018-04-11T23:35:43.513Z,14.19
2018-04-11T23:38:12.590Z,14.23
2018-04-11T23:40:41.639Z,14.06
2018-04-11T23:43:10.688Z,13.96
2018-04-11T23:45:39.767Z,14.02
2018-04-11T23:48:08.818Z,13.96
2018-04-11T23:50:37.873Z,13.92
2018-04-11T23:53:07.057Z,13.98
2018-04-11T23:55:36.129Z,13.75
2018-04-11T23:58:05.193Z,13.69
